Terminal Aerodrome Forecast
Issued by NWS

Home | Current Version | Previous Version | Text Only | Print | Product List | Glossary On
Versions: 1 2 3 4 5 6 7 8 9 10 11 12 13 14 15 16 17 18 19 20 21 22 23 24 25
000
FTUS43 KDMX 242332
TAFMCW
TAF
KMCW 242332Z 2500/2524 16011KT P6SM SCT060 BKN120
     FM250600 16013G19KT P6SM VCTS SCT035CB BKN060 OVC120
     FM251400 18012G18KT P6SM SCT035 BKN150=

USA.gov is the U.S. government's official web portal to all federal, state and local government web resources and services.